sensor_id;sensor_type;location;lat;lon;timestamp;temperature;humidity
18105;DHT22;9179;50.968;3.134;2023-10-13T00:01:09;19.00;99.90
18105;DHT22;9179;50.968;3.134;2023-10-13T00:03:38;19.00;99.90
18105;DHT22;9179;50.968;3.134;2023-10-13T00:06:06;19.00;99.90
18105;DHT22;9179;50.968;3.134;2023-10-13T00:08:34;19.00;99.90
18105;DHT22;9179;50.968;3.134;2023-10-13T00:11:02;19.00;99.90
18105;DHT22;9179;50.968;3.134;2023-10-13T00:13:31;19.00;99.90
18105;DHT22;9179;50.968;3.134;2023-10-13T00:16:07;19.00;99.90
18105;DHT22;9179;50.968;3.134;2023-10-13T00:18:42;19.10;99.90
18105;DHT22;9179;50.968;3.134;2023-10-13T00:21:10;19.10;99.90
18105;DHT22;9179;50.968;3.134;2023-10-13T00:23:39;19.10;99.90
18105;DHT22;9179;50.968;3.134;2023-10-13T00:26:09;19.10;99.90
18105;DHT22;9179;50.968;3.134;2023-10-13T00:28:38;19.10;99.90
18105;DHT22;9179;50.968;3.134;2023-10-13T00:31:12;19.20;99.90
18105;DHT22;9179;50.968;3.134;2023-10-13T00:33:40;19.10;99.90
18105;DHT22;9179;50.968;3.134;2023-10-13T00:36:08;19.10;99.90
18105;DHT22;9179;50.968;3.134;2023-10-13T00:38:42;19.00;99.90
18105;DHT22;9179;50.968;3.134;2023-10-13T00:41:14;19.00;99.90
18105;DHT22;9179;50.968;3.134;2023-10-13T00:43:47;18.80;99.90
18105;DHT22;9179;50.968;3.134;2023-10-13T00:46:28;18.80;99.90
18105;DHT22;9179;50.968;3.134;2023-10-13T00:48:59;18.90;99.90
18105;DHT22;9179;50.968;3.134;2023-10-13T00:51:25;18.90;99.90
18105;DHT22;9179;50.968;3.134;2023-10-13T00:54:02;18.90;99.90
18105;DHT22;9179;50.968;3.134;2023-10-13T00:56:33;18.80;99.90
18105;DHT22;9179;50.968;3.134;2023-10-13T00:59:08;18.90;99.90
18105;DHT22;9179;50.968;3.134;2023-10-13T01:01:35;18.80;99.90
18105;DHT22;9179;50.968;3.134;2023-10-13T01:04:02;18.60;99.90
18105;DHT22;9179;50.968;3.134;2023-10-13T01:06:31;18.60;99.90
18105;DHT22;9179;50.968;3.134;2023-10-13T01:09:00;18.60;99.90
18105;DHT22;9179;50.968;3.134;2023-10-13T01:11:37;18.60;99.90
18105;DHT22;9179;50.968;3.134;2023-10-13T01:14:04;18.60;99.90
18105;DHT22;9179;50.968;3.134;2023-10-13T01:16:33;18.70;99.90
18105;DHT22;9179;50.968;3.134;2023-10-13T01:19:01;18.70;99.90
18105;DHT22;9179;50.968;3.134;2023-10-13T01:21:30;18.70;99.90
18105;DHT22;9179;50.968;3.134;2023-10-13T01:24:01;18.70;99.90
18105;DHT22;9179;50.968;3.134;2023-10-13T01:26:27;18.70;99.90
18105;DHT22;9179;50.968;3.134;2023-10-13T01:28:57;18.70;99.90
18105;DHT22;9179;50.968;3.134;2023-10-13T01:31:23;18.80;99.90
18105;DHT22;9179;50.968;3.134;2023-10-13T01:33:55;18.80;99.90
18105;DHT22;9179;50.968;3.134;2023-10-13T01:36:24;18.80;99.90
18105;DHT22;9179;50.968;3.134;2023-10-13T01:38:52;18.80;99.90
18105;DHT22;9179;50.968;3.134;2023-10-13T01:41:21;18.80;99.90
18105;DHT22;9179;50.968;3.134;2023-10-13T01:43:47;18.80;99.90
18105;DHT22;9179;50.968;3.134;2023-10-13T01:46:15;18.80;99.90
18105;DHT22;9179;50.968;3.134;2023-10-13T01:48:41;18.90;99.90
18105;DHT22;9179;50.968;3.134;2023-10-13T01:51:09;18.90;99.90
18105;DHT22;9179;50.968;3.134;2023-10-13T01:53:39;19.00;99.90
18105;DHT22;9179;50.968;3.134;2023-10-13T01:56:07;18.90;99.90
18105;DHT22;9179;50.968;3.134;2023-10-13T01:58:38;18.90;99.90
18105;DHT22;9179;50.968;3.134;2023-10-13T02:01:07;18.70;99.90
18105;DHT22;9179;50.968;3.134;2023-10-13T02:03:34;18.80;99.90
18105;DHT22;9179;50.968;3.134;2023-10-13T02:06:07;18.70;99.90
18105;DHT22;9179;50.968;3.134;2023-10-13T02:08:35;18.70;99.90
18105;DHT22;9179;50.968;3.134;2023-10-13T02:11:06;18.70;99.90
18105;DHT22;9179;50.968;3.134;2023-10-13T02:13:32;18.70;99.90
18105;DHT22;9179;50.968;3.134;2023-10-13T02:16:08;18.80;99.90
18105;DHT22;9179;50.968;3.134;2023-10-13T02:18:37;18.80;99.90
18105;DHT22;9179;50.968;3.134;2023-10-13T02:21:07;18.80;99.90
18105;DHT22;9179;50.968;3.134;2023-10-13T02:23:39;18.80;99.90
18105;DHT22;9179;50.968;3.134;2023-10-13T02:26:11;18.80;99.90
18105;DHT22;9179;50.968;3.134;2023-10-13T02:28:38;18.90;99.90
18105;DHT22;9179;50.968;3.134;2023-10-13T02:31:05;19.00;99.90
18105;DHT22;9179;50.968;3.134;2023-10-13T02:33:34;19.00;99.90
18105;DHT22;9179;50.968;3.134;2023-10-13T02:36:02;19.10;99.90
18105;DHT22;9179;50.968;3.134;2023-10-13T02:38:31;19.10;99.90
18105;DHT22;9179;50.968;3.134;2023-10-13T02:41:00;19.10;99.90
18105;DHT22;9179;50.968;3.134;2023-10-13T02:43:33;19.10;99.90
18105;DHT22;9179;50.968;3.134;2023-10-13T02:46:00;19.20;99.90
18105;DHT22;9179;50.968;3.134;2023-10-13T02:48:27;19.20;99.90
18105;DHT22;9179;50.968;3.134;2023-10-13T02:50:58;19.20;99.90
18105;DHT22;9179;50.968;3.134;2023-10-13T02:53:28;19.20;99.90
18105;DHT22;9179;50.968;3.134;2023-10-13T02:55:55;19.20;99.90
18105;DHT22;9179;50.968;3.134;2023-10-13T02:58:24;19.30;99.90
18105;DHT22;9179;50.968;3.134;2023-10-13T03:01:05;19.20;99.90
18105;DHT22;9179;50.968;3.134;2023-10-13T03:03:46;19.20;99.90
18105;DHT22;9179;50.968;3.134;2023-10-13T03:06:18;19.20;99.90
18105;DHT22;9179;50.968;3.134;2023-10-13T03:08:48;19.20;99.90
18105;DHT22;9179;50.968;3.134;2023-10-13T03:11:14;19.20;99.90
18105;DHT22;9179;50.968;3.134;2023-10-13T03:13:47;19.20;99.90
18105;DHT22;9179;50.968;3.134;2023-10-13T03:16:17;19.20;99.90
18105;DHT22;9179;50.968;3.134;2023-10-13T03:18:43;19.20;99.90
18105;DHT22;9179;50.968;3.134;2023-10-13T03:21:23;19.20;99.90
18105;DHT22;9179;50.968;3.134;2023-10-13T03:23:57;19.20;99.90
18105;DHT22;9179;50.968;3.134;2023-10-13T03:26:30;19.20;99.90
18105;DHT22;9179;50.968;3.134;2023-10-13T03:29:01;19.20;99.90
18105;DHT22;9179;50.968;3.134;2023-10-13T03:31:30;19.10;99.90
18105;DHT22;9179;50.968;3.134;2023-10-13T03:33:56;19.20;99.90
18105;DHT22;9179;50.968;3.134;2023-10-13T03:36:26;19.20;99.90
18105;DHT22;9179;50.968;3.134;2023-10-13T03:39:07;19.20;99.90
18105;DHT22;9179;50.968;3.134;2023-10-13T03:41:36;19.20;99.90
18105;DHT22;9179;50.968;3.134;2023-10-13T03:44:05;19.10;99.90
18105;DHT22;9179;50.968;3.134;2023-10-13T03:46:38;19.10;99.90
18105;DHT22;9179;50.968;3.134;2023-10-13T03:49:07;19.10;99.90
18105;DHT22;9179;50.968;3.134;2023-10-13T03:51:40;19.10;99.90
18105;DHT22;9179;50.968;3.134;2023-10-13T03:54:07;19.10;99.90
18105;DHT22;9179;50.968;3.134;2023-10-13T03:56:34;19.20;99.90
18105;DHT22;9179;50.968;3.134;2023-10-13T03:59:06;19.20;99.90
18105;DHT22;9179;50.968;3.134;2023-10-13T04:01:36;19.20;99.90
18105;DHT22;9179;50.968;3.134;2023-10-13T04:04:12;19.20;99.90
18105;DHT22;9179;50.968;3.134;2023-10-13T04:06:42;19.30;99.90
18105;DHT22;9179;50.968;3.134;2023-10-13T04:09:18;19.30;99.90
18105;DHT22;9179;50.968;3.134;2023-10-13T04:12:04;19.30;99.90
18105;DHT22;9179;50.968;3.134;2023-10-13T04:15:14;19.30;99.90
18105;DHT22;9179;50.968;3.134;2023-10-13T04:17:43;19.20;99.90
18105;DHT22;9179;50.968;3.134;2023-10-13T04:20:11;19.20;99.90
18105;DHT22;9179;50.968;3.134;2023-10-13T04:22:55;19.30;99.90
18105;DHT22;9179;50.968;3.134;2023-10-13T04:25:43;19.30;99.90
18105;DHT22;9179;50.968;3.134;2023-10-13T04:28:35;19.30;99.90
18105;DHT22;9179;50.968;3.134;2023-10-13T04:31:03;19.30;99.90
18105;DHT22;9179;50.968;3.134;2023-10-13T04:33:49;19.30;99.90
18105;DHT22;9179;50.968;3.134;2023-10-13T04:36:21;19.30;99.90
18105;DHT22;9179;50.968;3.134;2023-10-13T04:39:04;19.40;99.90
18105;DHT22;9179;50.968;3.134;2023-10-13T04:41:36;19.30;99.90
18105;DHT22;9179;50.968;3.134;2023-10-13T04:44:05;19.30;99.90
18105;DHT22;9179;50.968;3.134;2023-10-13T04:46:46;19.30;99.90
18105;DHT22;9179;50.968;3.134;2023-10-13T04:49:28;19.30;99.90
18105;DHT22;9179;50.968;3.134;2023-10-13T04:52:02;19.40;99.90
18105;DHT22;9179;50.968;3.134;2023-10-13T04:54:40;19.40;99.90
18105;DHT22;9179;50.968;3.134;2023-10-13T04:57:16;19.40;99.90
18105;DHT22;9179;50.968;3.134;2023-10-13T04:59:51;19.50;99.90
18105;DHT22;9179;50.968;3.134;2023-10-13T05:02:35;19.50;99.90
18105;DHT22;9179;50.968;3.134;2023-10-13T05:05:20;19.50;99.90
18105;DHT22;9179;50.968;3.134;2023-10-13T05:08:04;19.50;99.90
18105;DHT22;9179;50.968;3.134;2023-10-13T05:10:50;19.50;99.90
18105;DHT22;9179;50.968;3.134;2023-10-13T05:13:34;19.60;99.90
18105;DHT22;9179;50.968;3.134;2023-10-13T05:16:18;19.60;99.90
18105;DHT22;9179;50.968;3.134;2023-10-13T05:19:03;19.60;99.90
18105;DHT22;9179;50.968;3.134;2023-10-13T05:21:47;19.60;99.90
18105;DHT22;9179;50.968;3.134;2023-10-13T05:24:32;19.70;99.90
18105;DHT22;9179;50.968;3.134;2023-10-13T05:27:17;19.70;99.90
18105;DHT22;9179;50.968;3.134;2023-10-13T05:30:02;19.70;99.90
18105;DHT22;9179;50.968;3.134;2023-10-13T05:33:01;19.70;99.90
18105;DHT22;9179;50.968;3.134;2023-10-13T05:35:45;19.60;99.90
18105;DHT22;9179;50.968;3.134;2023-10-13T05:38:30;19.70;99.90
18105;DHT22;9179;50.968;3.134;2023-10-13T05:41:14;19.70;99.90
18105;DHT22;9179;50.968;3.134;2023-10-13T05:44:00;19.70;99.90
18105;DHT22;9179;50.968;3.134;2023-10-13T05:46:44;19.60;99.90
18105;DHT22;9179;50.968;3.134;2023-10-13T05:49:49;19.60;99.90
18105;DHT22;9179;50.968;3.134;2023-10-13T05:52:16;19.60;99.90
18105;DHT22;9179;50.968;3.134;2023-10-13T05:55:06;19.60;99.90
18105;DHT22;9179;50.968;3.134;2023-10-13T05:57:50;19.60;99.90
18105;DHT22;9179;50.968;3.134;2023-10-13T06:00:41;19.60;99.90
18105;DHT22;9179;50.968;3.134;2023-10-13T06:03:25;19.60;99.90
18105;DHT22;9179;50.968;3.134;2023-10-13T06:06:10;19.60;99.90
18105;DHT22;9179;50.968;3.134;2023-10-13T06:08:54;19.60;99.90
18105;DHT22;9179;50.968;3.134;2023-10-13T06:11:38;19.70;99.90
18105;DHT22;9179;50.968;3.134;2023-10-13T06:14:22;19.70;99.90
18105;DHT22;9179;50.968;3.134;2023-10-13T06:17:08;19.70;99.90
18105;DHT22;9179;50.968;3.134;2023-10-13T06:19:52;19.70;99.90
18105;DHT22;9179;50.968;3.134;2023-10-13T06:22:36;19.80;99.90
18105;DHT22;9179;50.968;3.134;2023-10-13T06:25:35;19.80;99.90
18105;DHT22;9179;50.968;3.134;2023-10-13T06:28:20;19.90;99.90
18105;DHT22;9179;50.968;3.134;2023-10-13T06:31:05;19.90;99.90
18105;DHT22;9179;50.968;3.134;2023-10-13T06:33:34;20.00;99.90
18105;DHT22;9179;50.968;3.134;2023-10-13T06:36:01;20.10;99.90
18105;DHT22;9179;50.968;3.134;2023-10-13T06:38:29;20.10;99.90
18105;DHT22;9179;50.968;3.134;2023-10-13T06:41:01;20.10;99.90
18105;DHT22;9179;50.968;3.134;2023-10-13T06:43:31;20.20;99.90
18105;DHT22;9179;50.968;3.134;2023-10-13T06:46:00;20.20;99.90
18105;DHT22;9179;50.968;3.134;2023-10-13T06:48:28;20.30;99.90
18105;DHT22;9179;50.968;3.134;2023-10-13T06:51:00;20.30;99.90
18105;DHT22;9179;50.968;3.134;2023-10-13T06:53:30;20.40;99.90
18105;DHT22;9179;50.968;3.134;2023-10-13T06:56:02;20.50;99.90
18105;DHT22;9179;50.968;3.134;2023-10-13T06:58:32;20.50;99.90
18105;DHT22;9179;50.968;3.134;2023-10-13T07:00:59;20.70;99.90
18105;DHT22;9179;50.968;3.134;2023-10-13T07:03:27;20.70;99.90
18105;DHT22;9179;50.968;3.134;2023-10-13T07:05:54;20.70;99.90
18105;DHT22;9179;50.968;3.134;2023-10-13T07:08:25;20.70;99.90
18105;DHT22;9179;50.968;3.134;2023-10-13T07:10:53;20.80;99.90
18105;DHT22;9179;50.968;3.134;2023-10-13T07:13:30;20.80;99.90
18105;DHT22;9179;50.968;3.134;2023-10-13T07:16:02;20.90;99.90
18105;DHT22;9179;50.968;3.134;2023-10-13T07:18:38;21.00;99.90
18105;DHT22;9179;50.968;3.134;2023-10-13T07:21:15;21.10;99.90
18105;DHT22;9179;50.968;3.134;2023-10-13T07:23:43;21.20;99.90
18105;DHT22;9179;50.968;3.134;2023-10-13T07:26:26;21.20;99.90
18105;DHT22;9179;50.968;3.134;2023-10-13T07:28:54;21.40;99.90
18105;DHT22;9179;50.968;3.134;2023-10-13T07:31:21;21.50;99.90
18105;DHT22;9179;50.968;3.134;2023-10-13T07:33:52;21.70;99.90
18105;DHT22;9179;50.968;3.134;2023-10-13T07:36:30;21.90;99.90
18105;DHT22;9179;50.968;3.134;2023-10-13T07:39:06;21.90;99.90
18105;DHT22;9179;50.968;3.134;2023-10-13T07:41:47;22.10;99.90
18105;DHT22;9179;50.968;3.134;2023-10-13T07:44:18;22.20;99.90
18105;DHT22;9179;50.968;3.134;2023-10-13T07:46:45;22.30;99.90
18105;DHT22;9179;50.968;3.134;2023-10-13T07:49:23;22.40;99.90
18105;DHT22;9179;50.968;3.134;2023-10-13T07:51:50;22.60;99.90
18105;DHT22;9179;50.968;3.134;2023-10-13T07:54:24;22.60;99.90
18105;DHT22;9179;50.968;3.134;2023-10-13T07:56:50;22.60;99.90
18105;DHT22;9179;50.968;3.134;2023-10-13T07:59:18;22.80;99.90
18105;DHT22;9179;50.968;3.134;2023-10-13T08:01:48;22.90;99.90
18105;DHT22;9179;50.968;3.134;2023-10-13T08:04:34;23.00;99.90
18105;DHT22;9179;50.968;3.134;2023-10-13T08:07:02;23.30;99.90
18105;DHT22;9179;50.968;3.134;2023-10-13T08:09:39;23.40;99.90
18105;DHT22;9179;50.968;3.134;2023-10-13T08:12:07;23.30;99.90
18105;DHT22;9179;50.968;3.134;2023-10-13T08:14:37;23.40;99.90
18105;DHT22;9179;50.968;3.134;2023-10-13T08:17:06;23.50;99.90
18105;DHT22;9179;50.968;3.134;2023-10-13T08:19:36;23.50;99.90
18105;DHT22;9179;50.968;3.134;2023-10-13T08:22:08;23.30;99.90
18105;DHT22;9179;50.968;3.134;2023-10-13T08:24:52;23.00;99.90
18105;DHT22;9179;50.968;3.134;2023-10-13T08:27:40;22.80;99.90
18105;DHT22;9179;50.968;3.134;2023-10-13T08:30:31;22.80;99.90
18105;DHT22;9179;50.968;3.134;2023-10-13T08:33:08;22.70;99.90
18105;DHT22;9179;50.968;3.134;2023-10-13T08:35:43;22.70;99.90
18105;DHT22;9179;50.968;3.134;2023-10-13T08:38:20;22.60;99.90
18105;DHT22;9179;50.968;3.134;2023-10-13T08:40:58;22.60;99.90
18105;DHT22;9179;50.968;3.134;2023-10-13T08:43:56;22.50;99.90
18105;DHT22;9179;50.968;3.134;2023-10-13T08:46:30;22.70;99.90
18105;DHT22;9179;50.968;3.134;2023-10-13T08:49:18;22.80;99.90
18105;DHT22;9179;50.968;3.134;2023-10-13T08:51:49;22.80;99.90
18105;DHT22;9179;50.968;3.134;2023-10-13T08:54:18;22.80;99.90
18105;DHT22;9179;50.968;3.134;2023-10-13T08:57:03;22.90;99.90
18105;DHT22;9179;50.968;3.134;2023-10-13T08:59:46;22.90;99.90
18105;DHT22;9179;50.968;3.134;2023-10-13T09:02:21;22.90;99.90
18105;DHT22;9179;50.968;3.134;2023-10-13T09:04:49;23.10;99.90
18105;DHT22;9179;50.968;3.134;2023-10-13T09:07:25;23.30;99.90
18105;DHT22;9179;50.968;3.134;2023-10-13T09:09:51;23.60;99.90
18105;DHT22;9179;50.968;3.134;2023-10-13T09:12:38;24.00;99.90
18105;DHT22;9179;50.968;3.134;2023-10-13T09:15:29;24.20;99.90
18105;DHT22;9179;50.968;3.134;2023-10-13T09:18:25;24.10;99.90
18105;DHT22;9179;50.968;3.134;2023-10-13T09:21:06;23.90;99.90
18105;DHT22;9179;50.968;3.134;2023-10-13T09:23:55;23.90;99.90
18105;DHT22;9179;50.968;3.134;2023-10-13T09:26:42;23.90;99.90
18105;DHT22;9179;50.968;3.134;2023-10-13T09:29:18;24.00;99.90
18105;DHT22;9179;50.968;3.134;2023-10-13T09:31:59;24.10;99.90
18105;DHT22;9179;50.968;3.134;2023-10-13T09:34:26;24.40;99.90
18105;DHT22;9179;50.968;3.134;2023-10-13T09:36:57;24.50;99.90
18105;DHT22;9179;50.968;3.134;2023-10-13T09:39:25;24.30;99.90
18105;DHT22;9179;50.968;3.134;2023-10-13T09:42:00;24.20;99.90
18105;DHT22;9179;50.968;3.134;2023-10-13T09:44:28;23.90;99.90
18105;DHT22;9179;50.968;3.134;2023-10-13T09:47:00;23.50;99.90
18105;DHT22;9179;50.968;3.134;2023-10-13T09:49:38;23.30;99.90
18105;DHT22;9179;50.968;3.134;2023-10-13T09:52:14;23.30;99.90
18105;DHT22;9179;50.968;3.134;2023-10-13T09:54:58;23.10;99.90
18105;DHT22;9179;50.968;3.134;2023-10-13T09:57:33;22.90;99.90
18105;DHT22;9179;50.968;3.134;2023-10-13T10:00:09;22.80;99.90
18105;DHT22;9179;50.968;3.134;2023-10-13T10:02:59;22.80;99.90
18105;DHT22;9179;50.968;3.134;2023-10-13T10:05:41;23.00;99.90
18105;DHT22;9179;50.968;3.134;2023-10-13T10:08:23;23.20;99.90
18105;DHT22;9179;50.968;3.134;2023-10-13T10:11:04;23.20;99.90
18105;DHT22;9179;50.968;3.134;2023-10-13T10:13:39;23.30;99.90
18105;DHT22;9179;50.968;3.134;2023-10-13T10:16:11;23.50;99.90
18105;DHT22;9179;50.968;3.134;2023-10-13T10:18:41;23.50;99.90
18105;DHT22;9179;50.968;3.134;2023-10-13T10:21:08;23.40;99.90
18105;DHT22;9179;50.968;3.134;2023-10-13T10:23:36;23.50;99.90
18105;DHT22;9179;50.968;3.134;2023-10-13T10:26:11;23.60;99.90
18105;DHT22;9179;50.968;3.134;2023-10-13T10:28:42;23.70;99.90
18105;DHT22;9179;50.968;3.134;2023-10-13T10:31:10;23.70;99.90
18105;DHT22;9179;50.968;3.134;2023-10-13T10:33:40;24.00;99.90
18105;DHT22;9179;50.968;3.134;2023-10-13T10:36:08;24.10;99.90
18105;DHT22;9179;50.968;3.134;2023-10-13T10:38:51;24.10;99.90
18105;DHT22;9179;50.968;3.134;2023-10-13T10:41:25;24.20;99.90
18105;DHT22;9179;50.968;3.134;2023-10-13T10:44:10;24.20;99.90
18105;DHT22;9179;50.968;3.134;2023-10-13T10:46:43;24.20;99.90
18105;DHT22;9179;50.968;3.134;2023-10-13T10:49:23;24.20;99.90
18105;DHT22;9179;50.968;3.134;2023-10-13T10:51:58;24.60;99.90
18105;DHT22;9179;50.968;3.134;2023-10-13T10:54:29;24.80;99.90
18105;DHT22;9179;50.968;3.134;2023-10-13T10:56:58;25.00;99.90
18105;DHT22;9179;50.968;3.134;2023-10-13T10:59:37;25.10;99.90
18105;DHT22;9179;50.968;3.134;2023-10-13T11:02:06;25.20;99.90
18105;DHT22;9179;50.968;3.134;2023-10-13T11:04:34;25.50;99.90
18105;DHT22;9179;50.968;3.134;2023-10-13T11:07:06;25.70;99.90
18105;DHT22;9179;50.968;3.134;2023-10-13T11:09:35;26.10;99.90
18105;DHT22;9179;50.968;3.134;2023-10-13T11:12:12;26.50;99.90
18105;DHT22;9179;50.968;3.134;2023-10-13T11:15:00;26.50;99.90
18105;DHT22;9179;50.968;3.134;2023-10-13T11:17:28;26.40;99.90
18105;DHT22;9179;50.968;3.134;2023-10-13T11:20:18;26.20;99.90
18105;DHT22;9179;50.968;3.134;2023-10-13T11:22:51;26.10;99.90
18105;DHT22;9179;50.968;3.134;2023-10-13T11:25:23;25.90;99.90
18105;DHT22;9179;50.968;3.134;2023-10-13T11:27:55;26.00;99.90
18105;DHT22;9179;50.968;3.134;2023-10-13T11:30:25;25.90;99.90
18105;DHT22;9179;50.968;3.134;2023-10-13T11:33:00;25.90;99.90
18105;DHT22;9179;50.968;3.134;2023-10-13T11:35:31;25.90;99.90
18105;DHT22;9179;50.968;3.134;2023-10-13T11:38:12;25.90;99.90
18105;DHT22;9179;50.968;3.134;2023-10-13T11:40:40;26.00;99.90
18105;DHT22;9179;50.968;3.134;2023-10-13T11:43:10;26.00;99.90
18105;DHT22;9179;50.968;3.134;2023-10-13T11:45:40;26.00;99.90
18105;DHT22;9179;50.968;3.134;2023-10-13T11:48:22;25.90;99.90
18105;DHT22;9179;50.968;3.134;2023-10-13T11:51:00;25.80;99.90
18105;DHT22;9179;50.968;3.134;2023-10-13T11:53:27;25.70;99.90
18105;DHT22;9179;50.968;3.134;2023-10-13T11:55:55;25.60;99.90
18105;DHT22;9179;50.968;3.134;2023-10-13T11:58:22;25.40;99.90
18105;DHT22;9179;50.968;3.134;2023-10-13T12:00:49;24.90;99.90
18105;DHT22;9179;50.968;3.134;2023-10-13T12:03:21;24.50;99.90
18105;DHT22;9179;50.968;3.134;2023-10-13T12:06:09;24.00;99.90
18105;DHT22;9179;50.968;3.134;2023-10-13T12:08:48;23.00;99.90
18105;DHT22;9179;50.968;3.134;2023-10-13T12:11:18;22.70;99.90
18105;DHT22;9179;50.968;3.134;2023-10-13T12:13:56;22.70;99.90
18105;DHT22;9179;50.968;3.134;2023-10-13T12:16:23;22.60;99.90
18105;DHT22;9179;50.968;3.134;2023-10-13T12:19:01;22.50;99.90
18105;DHT22;9179;50.968;3.134;2023-10-13T12:21:28;22.40;99.90
18105;DHT22;9179;50.968;3.134;2023-10-13T12:23:55;22.40;99.90
18105;DHT22;9179;50.968;3.134;2023-10-13T12:26:21;22.50;99.90
18105;DHT22;9179;50.968;3.134;2023-10-13T12:28:58;22.60;99.90
18105;DHT22;9179;50.968;3.134;2023-10-13T12:31:32;22.70;99.90
18105;DHT22;9179;50.968;3.134;2023-10-13T12:34:05;22.70;99.90
18105;DHT22;9179;50.968;3.134;2023-10-13T12:36:39;22.60;99.90
18105;DHT22;9179;50.968;3.134;2023-10-13T12:39:18;22.50;99.90
18105;DHT22;9179;50.968;3.134;2023-10-13T12:42:03;22.50;99.90
18105;DHT22;9179;50.968;3.134;2023-10-13T12:44:47;22.40;99.90
18105;DHT22;9179;50.968;3.134;2023-10-13T12:47:31;22.50;99.90
18105;DHT22;9179;50.968;3.134;2023-10-13T12:50:17;22.60;99.90
18105;DHT22;9179;50.968;3.134;2023-10-13T12:53:00;22.70;99.90
18105;DHT22;9179;50.968;3.134;2023-10-13T12:55:26;22.40;99.90
18105;DHT22;9179;50.968;3.134;2023-10-13T12:57:53;22.40;99.90
18105;DHT22;9179;50.968;3.134;2023-10-13T13:00:20;22.30;99.90
18105;DHT22;9179;50.968;3.134;2023-10-13T13:02:49;22.40;99.90
18105;DHT22;9179;50.968;3.134;2023-10-13T13:05:22;22.60;99.90
18105;DHT22;9179;50.968;3.134;2023-10-13T13:07:54;22.90;99.90
18105;DHT22;9179;50.968;3.134;2023-10-13T13:10:21;23.20;99.90
18105;DHT22;9179;50.968;3.134;2023-10-13T13:13:01;23.40;99.90
18105;DHT22;9179;50.968;3.134;2023-10-13T13:15:28;23.70;99.90
18105;DHT22;9179;50.968;3.134;2023-10-13T13:17:55;23.80;99.90
18105;DHT22;9179;50.968;3.134;2023-10-13T13:20:25;23.90;99.90
18105;DHT22;9179;50.968;3.134;2023-10-13T13:22:56;24.00;99.90
18105;DHT22;9179;50.968;3.134;2023-10-13T13:25:28;24.00;99.90
18105;DHT22;9179;50.968;3.134;2023-10-13T13:27:58;24.10;99.90
18105;DHT22;9179;50.968;3.134;2023-10-13T13:30:30;24.00;99.90
18105;DHT22;9179;50.968;3.134;2023-10-13T13:32:59;23.90;99.90
18105;DHT22;9179;50.968;3.134;2023-10-13T13:35:30;24.10;99.90
18105;DHT22;9179;50.968;3.134;2023-10-13T13:38:00;24.00;99.90
18105;DHT22;9179;50.968;3.134;2023-10-13T13:40:37;23.90;99.90
18105;DHT22;9179;50.968;3.134;2023-10-13T13:43:04;23.90;99.90
18105;DHT22;9179;50.968;3.134;2023-10-13T13:45:32;23.90;99.90
18105;DHT22;9179;50.968;3.134;2023-10-13T13:48:00;23.80;99.90
18105;DHT22;9179;50.968;3.134;2023-10-13T13:50:37;23.80;99.90
18105;DHT22;9179;50.968;3.134;2023-10-13T13:53:06;23.90;99.90
18105;DHT22;9179;50.968;3.134;2023-10-13T13:55:35;24.00;99.90
18105;DHT22;9179;50.968;3.134;2023-10-13T13:58:05;24.00;99.90
18105;DHT22;9179;50.968;3.134;2023-10-13T14:00:37;23.90;99.90
18105;DHT22;9179;50.968;3.134;2023-10-13T14:03:04;24.00;99.90
18105;DHT22;9179;50.968;3.134;2023-10-13T14:05:41;24.30;99.90
18105;DHT22;9179;50.968;3.134;2023-10-13T14:08:08;24.30;99.90
18105;DHT22;9179;50.968;3.134;2023-10-13T14:10:37;24.50;99.90
18105;DHT22;9179;50.968;3.134;2023-10-13T14:13:18;24.60;99.90
18105;DHT22;9179;50.968;3.134;2023-10-13T14:15:48;24.50;99.90
18105;DHT22;9179;50.968;3.134;2023-10-13T14:18:14;24.50;99.90
18105;DHT22;9179;50.968;3.134;2023-10-13T14:20:42;24.50;99.90
18105;DHT22;9179;50.968;3.134;2023-10-13T14:23:09;24.50;99.90
18105;DHT22;9179;50.968;3.134;2023-10-13T14:25:38;24.50;99.90
18105;DHT22;9179;50.968;3.134;2023-10-13T14:28:09;24.50;99.90
18105;DHT22;9179;50.968;3.134;2023-10-13T14:30:37;24.50;99.90
18105;DHT22;9179;50.968;3.134;2023-10-13T14:33:04;24.40;99.90
18105;DHT22;9179;50.968;3.134;2023-10-13T14:35:36;24.30;99.90
18105;DHT22;9179;50.968;3.134;2023-10-13T14:38:05;24.20;99.90
18105;DHT22;9179;50.968;3.134;2023-10-13T14:40:32;24.10;99.90
18105;DHT22;9179;50.968;3.134;2023-10-13T14:42:59;23.90;99.90
18105;DHT22;9179;50.968;3.134;2023-10-13T14:45:26;23.80;99.90
18105;DHT22;9179;50.968;3.134;2023-10-13T14:47:53;23.90;99.90
18105;DHT22;9179;50.968;3.134;2023-10-13T14:50:20;23.90;99.90
18105;DHT22;9179;50.968;3.134;2023-10-13T14:52:47;24.00;99.90
18105;DHT22;9179;50.968;3.134;2023-10-13T14:55:16;24.20;99.90
18105;DHT22;9179;50.968;3.134;2023-10-13T14:57:46;24.20;99.90
18105;DHT22;9179;50.968;3.134;2023-10-13T15:00:15;24.20;99.90
18105;DHT22;9179;50.968;3.134;2023-10-13T15:02:50;24.30;99.90
18105;DHT22;9179;50.968;3.134;2023-10-13T15:05:18;24.40;99.90
18105;DHT22;9179;50.968;3.134;2023-10-13T15:07:45;24.50;99.90
18105;DHT22;9179;50.968;3.134;2023-10-13T15:10:13;24.60;99.90
18105;DHT22;9179;50.968;3.134;2023-10-13T15:12:42;24.50;99.90
18105;DHT22;9179;50.968;3.134;2023-10-13T15:15:11;24.40;99.90
18105;DHT22;9179;50.968;3.134;2023-10-13T15:17:41;24.10;99.90
18105;DHT22;9179;50.968;3.134;2023-10-13T15:20:09;24.00;99.90
18105;DHT22;9179;50.968;3.134;2023-10-13T15:22:41;23.70;99.90
18105;DHT22;9179;50.968;3.134;2023-10-13T15:25:08;23.60;99.90
18105;DHT22;9179;50.968;3.134;2023-10-13T15:27:44;23.50;99.90
18105;DHT22;9179;50.968;3.134;2023-10-13T15:30:16;23.30;99.90
18105;DHT22;9179;50.968;3.134;2023-10-13T15:32:56;23.30;99.90
18105;DHT22;9179;50.968;3.134;2023-10-13T15:35:24;23.20;99.90
18105;DHT22;9179;50.968;3.134;2023-10-13T15:37:54;23.20;99.90
18105;DHT22;9179;50.968;3.134;2023-10-13T15:40:21;22.80;99.90
18105;DHT22;9179;50.968;3.134;2023-10-13T15:42:51;22.30;99.90
18105;DHT22;9179;50.968;3.134;2023-10-13T15:45:21;21.60;99.90
18105;DHT22;9179;50.968;3.134;2023-10-13T15:47:48;21.00;99.90
18105;DHT22;9179;50.968;3.134;2023-10-13T15:50:16;20.70;99.90
18105;DHT22;9179;50.968;3.134;2023-10-13T15:52:46;20.50;99.90
18105;DHT22;9179;50.968;3.134;2023-10-13T15:55:14;20.10;99.90
18105;DHT22;9179;50.968;3.134;2023-10-13T15:57:43;19.90;99.90
18105;DHT22;9179;50.968;3.134;2023-10-13T16:00:12;19.90;99.90
18105;DHT22;9179;50.968;3.134;2023-10-13T16:02:51;19.80;99.90
18105;DHT22;9179;50.968;3.134;2023-10-13T16:05:20;19.60;99.90
18105;DHT22;9179;50.968;3.134;2023-10-13T16:07:50;19.50;99.90
18105;DHT22;9179;50.968;3.134;2023-10-13T16:10:20;19.30;99.90
18105;DHT22;9179;50.968;3.134;2023-10-13T16:12:47;19.30;99.90
18105;DHT22;9179;50.968;3.134;2023-10-13T16:15:16;19.30;99.90
18105;DHT22;9179;50.968;3.134;2023-10-13T16:17:44;19.30;99.90
18105;DHT22;9179;50.968;3.134;2023-10-13T16:20:11;19.40;99.90
18105;DHT22;9179;50.968;3.134;2023-10-13T16:22:43;19.50;99.90
18105;DHT22;9179;50.968;3.134;2023-10-13T16:25:11;19.60;99.90